Time;durP1;ratioP1;P1;durP2;ratioP2;P2;SDS_P1;SDS_P2;PMS_P1;PMS_P2;Temp;Humidity;BMP_temperature;BMP_pressure;BME280_temperature;BME280_humidity;BME280_pressure;Samples;Min_cycle;Max_cycle;Signal;HPM_P1;HPM_P2
2022/10/30 00:00:18;;;;;;;;;;;18.50;71.40;;;;;;5135271;27;19923;-66
2022/10/30 00:02:46;;;;;;;;;;;18.50;71.40;;;;;;5156978;27;19919;-66
2022/10/30 00:05:11;;;;;;;;;;;18.50;71.40;;;;;;5157978;27;19933;-66
2022/10/30 00:07:37;;;;;;;;;;;18.50;71.40;;;;;;5139412;27;20395;-66
2022/10/30 00:10:02;;;;;;;;;;;18.60;71.40;;;;;;5158000;27;19923;-66
2022/10/30 00:12:28;;;;;;;;;;;18.50;71.40;;;;;;5157827;27;19926;-66
2022/10/30 00:14:53;;;;;;;;;;;18.50;71.40;;;;;;5139618;27;19952;-66
2022/10/30 00:17:19;;;;;;;;;;;18.60;71.40;;;;;;5138385;27;19919;-66
2022/10/30 00:19:44;;;;;;;;;;;18.60;71.40;;;;;;5157641;27;19923;-66
2022/10/30 00:22:10;;;;;;;;;;;18.50;71.30;;;;;;5138404;27;19940;-66
2022/10/30 00:24:35;;;;;;;;;;;18.50;71.30;;;;;;5138888;27;19930;-66
2022/10/30 00:27:01;;;;;;;;;;;18.50;71.30;;;;;;5138943;27;19923;-66
2022/10/30 00:29:26;;;;;;;;;;;18.50;71.30;;;;;;5139322;27;19961;-66
2022/10/30 00:31:52;;;;;;;;;;;18.50;71.40;;;;;;5157345;27;20322;-66
2022/10/30 00:34:18;;;;;;;;;;;18.50;71.30;;;;;;5157705;27;20022;-66
2022/10/30 00:36:43;;;;;;;;;;;18.50;71.30;;;;;;5138791;27;19930;-66
2022/10/30 00:39:09;;;;;;;;;;;18.50;71.40;;;;;;5138838;27;19954;-66
2022/10/30 00:41:35;;;;;;;;;;;18.50;71.40;;;;;;5138422;27;19923;-66
2022/10/30 00:44:01;;;;;;;;;;;18.50;71.40;;;;;;5157246;27;20351;-66
2022/10/30 00:46:29;;;;;;;;;;;18.50;71.30;;;;;;5157188;27;19965;-66
2022/10/30 00:48:58;;;;;;;;;;;18.50;71.30;;;;;;5157195;27;20335;-66
2022/10/30 00:51:26;;;;;;;;;;;18.50;71.30;;;;;;5157321;27;20326;-66
2022/10/30 00:53:51;;;;;;;;;;;18.40;71.30;;;;;;5156965;27;20454;-66
2022/10/30 00:56:19;;;;;;;;;;;18.50;71.30;;;;;;5138431;27;19923;-66
2022/10/30 00:58:47;;;;;;;;;;;18.50;71.30;;;;;;5138318;27;19919;-66
2022/10/30 01:01:16;;;;;;;;;;;18.50;71.30;;;;;;5138313;27;19923;-66
2022/10/30 01:03:41;;;;;;;;;;;18.30;71.20;;;;;;5156870;27;19919;-66
2022/10/30 01:06:09;;;;;;;;;;;18.50;71.30;;;;;;5138538;27;20014;-66
2022/10/30 01:08:36;;;;;;;;;;;18.50;71.30;;;;;;5138522;27;19919;-66
2022/10/30 01:11:01;;;;;;;;;;;18.50;71.30;;;;;;5138495;27;19919;-66
2022/10/30 01:13:27;;;;;;;;;;;18.50;71.30;;;;;;5156121;27;20377;-66
2022/10/30 01:16:13;;;;;;;;;;;18.50;71.30;;;;;;5138306;27;19923;-66
2022/10/30 01:18:47;;;;;;;;;;;18.50;71.30;;;;;;5155556;27;20349;-66
2022/10/30 01:24:13;;;;;;;;;;;18.50;71.30;;;;;;5121842;27;2025247;-66
2022/10/30 01:26:46;;;;;;;;;;;18.50;71.30;;;;;;5174154;27;20385;-66
2022/10/30 01:37:19;;;;;;;;;;;18.50;71.30;;;;;;5089978;28;20287;-66
2022/10/30 01:39:45;;;;;;;;;;;18.50;71.30;;;;;;5088622;28;19920;-66
2022/10/30 01:42:30;;;;;;;;;;;18.40;71.20;;;;;;5105845;28;19928;-66
2022/10/30 01:44:56;;;;;;;;;;;18.40;71.30;;;;;;5088323;28;19920;-66
2022/10/30 01:47:29;;;;;;;;;;;18.40;71.20;;;;;;5088746;28;19920;-66
2022/10/30 01:50:08;;;;;;;;;;;18.40;71.20;;;;;;5088676;28;19921;-66
2022/10/30 01:55:21;;;;;;;;;;;18.40;71.20;;;;;;5089813;28;19912;-66
2022/10/30 01:58:07;;;;;;;;;;;18.40;71.20;;;;;;5088955;28;19974;-66
2022/10/30 02:00:32;;;;;;;;;;;18.40;71.30;;;;;;5088352;28;19921;-66
2022/10/30 02:02:58;;;;;;;;;;;18.40;71.20;;;;;;5088530;28;19920;-67
2022/10/30 02:05:29;;;;;;;;;;;18.40;71.20;;;;;;5088751;28;19921;-66
2022/10/30 02:07:54;;;;;;;;;;;18.40;71.20;;;;;;5088432;28;19927;-66
2022/10/30 02:10:20;;;;;;;;;;;18.40;71.20;;;;;;5088327;28;19924;-66
2022/10/30 02:12:46;;;;;;;;;;;18.40;71.20;;;;;;5089569;28;19924;-66
2022/10/30 02:15:11;;;;;;;;;;;18.40;71.20;;;;;;5089711;28;19927;-67
2022/10/30 02:17:39;;;;;;;;;;;18.30;71.20;;;;;;5089083;28;19932;-66
2022/10/30 02:20:05;;;;;;;;;;;18.40;71.20;;;;;;5087513;28;20007;-66
2022/10/30 02:22:31;;;;;;;;;;;18.40;71.20;;;;;;5089635;28;19924;-66
2022/10/30 02:24:56;;;;;;;;;;;18.40;71.20;;;;;;5089310;28;19973;-66
2022/10/30 02:27:22;;;;;;;;;;;18.40;71.20;;;;;;5089227;28;20058;-66
2022/10/30 02:29:48;;;;;;;;;;;18.40;71.20;;;;;;5087913;28;20053;-66
2022/10/30 02:32:13;;;;;;;;;;;18.40;71.20;;;;;;5089349;28;20003;-66
2022/10/30 02:34:39;;;;;;;;;;;18.40;71.20;;;;;;5089085;28;20324;-66
2022/10/30 02:37:04;;;;;;;;;;;18.40;71.20;;;;;;5089091;28;19920;-66
2022/10/30 02:39:30;;;;;;;;;;;18.40;71.20;;;;;;5088112;28;20015;-66
2022/10/30 02:41:56;;;;;;;;;;;18.40;71.20;;;;;;5087602;28;20403;-66
2022/10/30 02:44:21;;;;;;;;;;;18.30;71.20;;;;;;5088867;28;19943;-66
2022/10/30 02:46:47;;;;;;;;;;;18.30;71.10;;;;;;5088938;28;19921;-66
2022/10/30 02:49:12;;;;;;;;;;;18.30;71.20;;;;;;5089036;28;20372;-66
2022/10/30 02:51:38;;;;;;;;;;;18.30;71.20;;;;;;5087489;28;19920;-66
2022/10/30 02:54:03;;;;;;;;;;;18.30;71.10;;;;;;5087278;28;19932;-66
2022/10/30 02:56:29;;;;;;;;;;;18.30;71.20;;;;;;5088701;28;20328;-66
2022/10/30 02:58:55;;;;;;;;;;;18.30;71.20;;;;;;5087694;28;20355;-66
2022/10/30 03:01:20;;;;;;;;;;;18.30;71.10;;;;;;5088605;28;19921;-66
2022/10/30 03:03:46;;;;;;;;;;;18.30;71.20;;;;;;5088571;28;19924;-66
2022/10/30 03:06:15;;;;;;;;;;;18.30;71.20;;;;;;5076945;28;19971;-66
2022/10/30 03:08:41;;;;;;;;;;;18.30;71.20;;;;;;5075127;28;20284;-66
2022/10/30 03:11:08;;;;;;;;;;;18.30;71.20;;;;;;5073975;28;19926;-66
2022/10/30 03:13:34;;;;;;;;;;;18.30;71.90;;;;;;5073692;28;19921;-66
2022/10/30 03:16:03;;;;;;;;;;;18.30;71.20;;;;;;5074922;28;20407;-66
2022/10/30 03:18:29;;;;;;;;;;;18.30;71.10;;;;;;5074692;28;19927;-66
2022/10/30 03:20:55;;;;;;;;;;;18.30;71.10;;;;;;5073664;28;19921;-66
2022/10/30 03:23:21;;;;;;;;;;;18.20;71.10;;;;;;5074602;28;20575;-66
2022/10/30 03:25:46;;;;;;;;;;;18.30;71.20;;;;;;5074774;28;20148;-66
2022/10/30 03:28:12;;;;;;;;;;;18.30;71.10;;;;;;5074551;28;19924;-66
2022/10/30 03:30:37;;;;;;;;;;;18.20;71.10;;;;;;5074815;28;20331;-66
2022/10/30 03:33:03;;;;;;;;;;;18.30;71.10;;;;;;5074507;28;20388;-66
2022/10/30 03:35:28;;;;;;;;;;;18.20;71.10;;;;;;5073589;28;19970;-66
2022/10/30 03:37:54;;;;;;;;;;;18.30;71.10;;;;;;5073176;28;19920;-66
2022/10/30 03:40:19;;;;;;;;;;;18.20;71.10;;;;;;5074469;28;19927;-66
2022/10/30 03:42:45;;;;;;;;;;;18.30;71.10;;;;;;5074306;28;19947;-66
2022/10/30 03:45:10;;;;;;;;;;;18.30;71.10;;;;;;5073258;28;20007;-66
2022/10/30 03:47:38;;;;;;;;;;;18.20;71.10;;;;;;5072991;28;19920;-66
2022/10/30 03:50:04;;;;;;;;;;;18.30;71.20;;;;;;5074326;28;19920;-66
2022/10/30 03:52:29;;;;;;;;;;;18.30;71.20;;;;;;5072194;28;20403;-66
2022/10/30 03:54:55;;;;;;;;;;;18.30;71.10;;;;;;5091664;28;20065;-66
2022/10/30 03:57:20;;;;;;;;;;;18.20;71.10;;;;;;5094376;28;19935;-66
2022/10/30 03:59:46;;;;;;;;;;;18.20;71.10;;;;;;5076342;28;19920;-66
2022/10/30 04:02:11;;;;;;;;;;;18.20;71.10;;;;;;5075483;28;19999;-66
2022/10/30 04:04:37;;;;;;;;;;;18.20;71.10;;;;;;5093952;28;19920;-66
2022/10/30 04:07:02;;;;;;;;;;;18.20;71.10;;;;;;5076289;28;20379;-66
2022/10/30 04:09:28;;;;;;;;;;;18.20;71.10;;;;;;5076046;28;19920;-66
2022/10/30 04:11:53;;;;;;;;;;;18.20;71.10;;;;;;5075934;28;19920;-66
2022/10/30 04:14:19;;;;;;;;;;;18.20;71.10;;;;;;5075762;28;19932;-66
2022/10/30 04:16:44;;;;;;;;;;;18.20;71.10;;;;;;5092975;28;19931;-67
2022/10/30 04:19:10;;;;;;;;;;;18.20;71.10;;;;;;5093506;28;19927;-66
2022/10/30 04:21:35;;;;;;;;;;;18.20;71.20;;;;;;5075328;28;19957;-66
2022/10/30 04:24:01;;;;;;;;;;;18.20;71.90;;;;;;5075242;28;19920;-66
2022/10/30 04:26:27;;;;;;;;;;;18.20;71.10;;;;;;5075421;28;19920;-66
2022/10/30 04:28:52;;;;;;;;;;;18.20;71.10;;;;;;5075501;28;19920;-66
2022/10/30 04:31:18;;;;;;;;;;;18.20;71.10;;;;;;5093614;28;19967;-66
2022/10/30 04:33:43;;;;;;;;;;;18.10;71.10;;;;;;5075662;28;20384;-66
2022/10/30 04:36:09;;;;;;;;;;;18.10;71.00;;;;;;5075672;28;20011;-66
2022/10/30 04:38:34;;;;;;;;;;;18.20;71.10;;;;;;5093746;28;20427;-66
2022/10/30 04:41:00;;;;;;;;;;;18.10;71.00;;;;;;5075308;28;20050;-66
2022/10/30 04:43:26;;;;;;;;;;;18.10;71.00;;;;;;5075248;28;20053;-66
2022/10/30 04:45:52;;;;;;;;;;;18.10;71.10;;;;;;5075214;28;19959;-66
2022/10/30 04:48:17;;;;;;;;;;;18.10;71.00;;;;;;5075266;28;20000;-66
2022/10/30 04:50:43;;;;;;;;;;;18.10;71.00;;;;;;5075536;28;19927;-66
2022/10/30 04:53:11;;;;;;;;;;;18.10;71.10;;;;;;5093190;28;19977;-66
2022/10/30 04:55:37;;;;;;;;;;;18.10;71.00;;;;;;5075075;28;20423;-66
2022/10/30 04:58:03;;;;;;;;;;;18.10;71.00;;;;;;5093244;28;20065;-66
2022/10/30 05:00:29;;;;;;;;;;;18.10;71.00;;;;;;5093122;28;19920;-66
2022/10/30 05:02:56;;;;;;;;;;;18.10;71.00;;;;;;5075272;28;19924;-66
2022/10/30 05:05:22;;;;;;;;;;;18.10;71.00;;;;;;5075224;28;19920;-66
2022/10/30 05:07:47;;;;;;;;;;;18.00;71.00;;;;;;5075102;28;20252;-66
2022/10/30 05:10:13;;;;;;;;;;;18.10;71.00;;;;;;5075125;28;19920;-66
2022/10/30 05:12:41;;;;;;;;;;;18.10;71.10;;;;;;5074886;28;20294;-66
2022/10/30 05:15:06;;;;;;;;;;;18.10;71.00;;;;;;5074266;28;19932;-66
2022/10/30 05:17:32;;;;;;;;;;;18.10;71.10;;;;;;5092839;28;20441;-66
2022/10/30 05:19:57;;;;;;;;;;;18.10;71.10;;;;;;5074993;28;19989;-66
2022/10/30 05:22:23;;;;;;;;;;;18.10;71.10;;;;;;5074627;28;19928;-66
2022/10/30 05:24:48;;;;;;;;;;;18.10;71.00;;;;;;5092870;28;19924;-66
2022/10/30 05:27:14;;;;;;;;;;;18.10;71.10;;;;;;5074203;28;20010;-66
2022/10/30 05:29:40;;;;;;;;;;;18.00;71.00;;;;;;5074599;28;20352;-67
2022/10/30 05:32:05;;;;;;;;;;;18.10;71.00;;;;;;5092567;28;19971;-67
2022/10/30 05:34:31;;;;;;;;;;;18.00;71.00;;;;;;5074558;28;19954;-67
2022/10/30 05:36:56;;;;;;;;;;;18.10;71.00;;;;;;5074450;28;19972;-67
2022/10/30 05:39:22;;;;;;;;;;;18.00;70.90;;;;;;5092633;28;20006;-67
2022/10/30 05:41:47;;;;;;;;;;;18.00;71.00;;;;;;5074665;28;20014;-67
2022/10/30 05:44:13;;;;;;;;;;;18.00;70.90;;;;;;5074487;28;19931;-67
2022/10/30 05:46:38;;;;;;;;;;;18.00;70.90;;;;;;5074338;28;19927;-67
2022/10/30 05:49:04;;;;;;;;;;;18.00;70.90;;;;;;5074335;28;20010;-67
2022/10/30 05:51:30;;;;;;;;;;;18.00;71.00;;;;;;5074649;28;19920;-67
2022/10/30 05:53:55;;;;;;;;;;;18.00;70.90;;;;;;5092112;28;20058;-67
2022/10/30 05:56:21;;;;;;;;;;;18.00;71.00;;;;;;5074230;28;19920;-67
2022/10/30 05:58:49;;;;;;;;;;;18.00;70.90;;;;;;5091652;28;19927;-67
2022/10/30 06:01:14;;;;;;;;;;;18.00;70.90;;;;;;5074127;28;20062;-67
2022/10/30 06:03:40;;;;;;;;;;;18.00;71.00;;;;;;5092141;28;20010;-67
2022/10/30 06:06:06;;;;;;;;;;;18.00;70.90;;;;;;5092488;28;19924;-67
2022/10/30 06:08:31;;;;;;;;;;;18.00;70.90;;;;;;5092424;28;20405;-67
2022/10/30 06:10:57;;;;;;;;;;;18.00;71.00;;;;;;5074478;28;20379;-67
2022/10/30 06:13:22;;;;;;;;;;;18.00;71.00;;;;;;5074066;28;20384;-67
2022/10/30 06:15:48;;;;;;;;;;;17.90;70.90;;;;;;5074131;28;19921;-67
2022/10/30 06:18:13;;;;;;;;;;;17.90;70.90;;;;;;5092036;28;19920;-67
2022/10/30 06:20:39;;;;;;;;;;;18.00;71.00;;;;;;5092458;28;20155;-67
2022/10/30 06:23:06;;;;;;;;;;;18.00;71.00;;;;;;5074419;28;19943;-67
2022/10/30 06:25:32;;;;;;;;;;;17.90;70.90;;;;;;5074082;28;19974;-67
2022/10/30 06:27:58;;;;;;;;;;;17.90;70.90;;;;;;5092279;28;20003;-67
2022/10/30 06:30:24;;;;;;;;;;;17.90;70.90;;;;;;5073904;28;20243;-67
2022/10/30 06:32:54;;;;;;;;;;;17.90;70.90;;;;;;5074233;28;20113;-67
2022/10/30 06:35:20;;;;;;;;;;;17.90;71.00;;;;;;5091986;28;20461;-67
2022/10/30 06:37:47;;;;;;;;;;;17.90;70.90;;;;;;5073911;28;20019;-67
2022/10/30 06:40:12;;;;;;;;;;;17.90;70.90;;;;;;5074700;28;20012;-67
2022/10/30 06:42:46;;;;;;;;;;;17.90;71.60;;;;;;5095937;28;20015;-67
2022/10/30 06:45:12;;;;;;;;;;;18.00;71.00;;;;;;5095669;28;20015;-67
2022/10/30 06:47:37;;;;;;;;;;;17.90;71.00;;;;;;5077494;28;19970;-67
2022/10/30 06:50:04;;;;;;;;;;;17.90;71.00;;;;;;5077830;28;19924;-67
2022/10/30 06:52:30;;;;;;;;;;;17.90;70.90;;;;;;5095686;28;20276;-67
2022/10/30 06:54:55;;;;;;;;;;;17.90;71.00;;;;;;5076340;28;20034;-67
2022/10/30 06:57:21;;;;;;;;;;;17.90;70.90;;;;;;5095591;28;20299;-67
2022/10/30 06:59:46;;;;;;;;;;;17.80;70.90;;;;;;5077220;28;20368;-67
2022/10/30 07:02:12;;;;;;;;;;;17.90;70.90;;;;;;5095455;28;19920;-67
2022/10/30 07:04:37;;;;;;;;;;;17.90;71.60;;;;;;5077167;28;19931;-67
2022/10/30 07:07:03;;;;;;;;;;;17.90;70.90;;;;;;5095446;28;20384;-67
2022/10/30 07:09:29;;;;;;;;;;;17.90;70.90;;;;;;5077086;28;19927;-67
2022/10/30 07:11:54;;;;;;;;;;;17.90;70.90;;;;;;5095429;28;19946;-67
2022/10/30 07:14:20;;;;;;;;;;;17.90;70.90;;;;;;5076930;28;19920;-67
2022/10/30 07:16:45;;;;;;;;;;;17.90;70.90;;;;;;5077048;28;19931;-67
2022/10/30 07:19:11;;;;;;;;;;;17.90;70.90;;;;;;5094973;28;19921;-67
2022/10/30 07:21:36;;;;;;;;;;;17.80;70.80;;;;;;5077196;28;20355;-67
2022/10/30 07:24:02;;;;;;;;;;;17.90;70.90;;;;;;5076941;28;19928;-67
2022/10/30 07:26:27;;;;;;;;;;;17.90;70.90;;;;;;5077119;28;19920;-67
2022/10/30 07:28:53;;;;;;;;;;;17.90;70.90;;;;;;5094911;28;19920;-67
2022/10/30 07:31:18;;;;;;;;;;;17.90;70.90;;;;;;5094768;28;19927;-67
2022/10/30 07:33:44;;;;;;;;;;;17.80;70.80;;;;;;5076661;28;20069;-67
2022/10/30 07:36:09;;;;;;;;;;;17.80;70.80;;;;;;5094673;28;19926;-67
2022/10/30 07:38:35;;;;;;;;;;;17.80;70.80;;;;;;5076879;28;19927;-67
2022/10/30 07:41:00;;;;;;;;;;;17.80;70.80;;;;;;5094870;28;20290;-67
2022/10/30 07:43:26;;;;;;;;;;;17.90;70.90;;;;;;5094674;28;20447;-67
2022/10/30 07:45:51;;;;;;;;;;;17.80;70.80;;;;;;5076391;28;19971;-67
2022/10/30 07:48:17;;;;;;;;;;;17.80;70.80;;;;;;5075687;28;20007;-67
2022/10/30 07:50:42;;;;;;;;;;;17.80;70.80;;;;;;5076041;28;19920;-67
2022/10/30 07:53:08;;;;;;;;;;;17.90;70.90;;;;;;5076352;28;20015;-67
2022/10/30 07:55:33;;;;;;;;;;;17.80;70.80;;;;;;5076522;28;20309;-67
2022/10/30 07:57:59;;;;;;;;;;;17.80;70.80;;;;;;5076578;28;20315;-67
2022/10/30 08:00:24;;;;;;;;;;;17.80;70.80;;;;;;5076643;28;19924;-68
2022/10/30 08:02:50;;;;;;;;;;;17.80;70.80;;;;;;5075455;28;19966;-67
2022/10/30 08:05:16;;;;;;;;;;;17.80;70.80;;;;;;5093946;28;19932;-67
2022/10/30 08:07:44;;;;;;;;;;;17.80;70.80;;;;;;5094001;28;19920;-67
2022/10/30 08:10:10;;;;;;;;;;;17.80;70.80;;;;;;5094183;28;19942;-67
2022/10/30 08:12:37;;;;;;;;;;;17.80;70.80;;;;;;5075980;28;20442;-67
2022/10/30 08:15:02;;;;;;;;;;;17.80;70.80;;;;;;5076223;28;19972;-67
2022/10/30 08:17:28;;;;;;;;;;;17.80;70.70;;;;;;5094205;28;19920;-67
2022/10/30 08:19:54;;;;;;;;;;;17.80;70.80;;;;;;5093923;28;20348;-67
2022/10/30 08:22:20;;;;;;;;;;;17.80;70.80;;;;;;5075329;28;20280;-67
2022/10/30 08:24:45;;;;;;;;;;;17.80;70.70;;;;;;5093717;28;19924;-67
2022/10/30 08:27:11;;;;;;;;;;;17.80;70.70;;;;;;5075618;28;19970;-67
2022/10/30 08:29:36;;;;;;;;;;;17.80;70.70;;;;;;5076026;28;19920;-67
2022/10/30 08:32:02;;;;;;;;;;;17.80;70.80;;;;;;5075507;28;20391;-67
2022/10/30 08:34:30;;;;;;;;;;;17.80;70.70;;;;;;5093775;28;20007;-67
2022/10/30 08:36:56;;;;;;;;;;;17.80;70.70;;;;;;5093423;28;20414;-67
2022/10/30 08:39:21;;;;;;;;;;;17.80;70.70;;;;;;5093560;28;20027;-67
2022/10/30 08:41:47;;;;;;;;;;;17.80;70.70;;;;;;5093549;28;19965;-67
2022/10/30 08:44:12;;;;;;;;;;;17.80;70.70;;;;;;5093482;28;19969;-67
2022/10/30 08:46:38;;;;;;;;;;;17.80;70.70;;;;;;5093512;28;20344;-67
2022/10/30 08:49:03;;;;;;;;;;;17.80;70.70;;;;;;5093429;28;20003;-67
2022/10/30 08:51:32;;;;;;;;;;;17.80;70.70;;;;;;5075455;28;19927;-68
2022/10/30 08:53:58;;;;;;;;;;;17.80;70.70;;;;;;5092986;28;19928;-67
2022/10/30 08:56:24;;;;;;;;;;;17.80;70.70;;;;;;5075302;28;19926;-67
2022/10/30 08:58:50;;;;;;;;;;;17.80;70.70;;;;;;5075006;28;19920;-67
2022/10/30 09:01:16;;;;;;;;;;;17.80;70.70;;;;;;5093382;28;19931;-67
2022/10/30 09:03:43;;;;;;;;;;;17.80;70.70;;;;;;5074632;28;19935;-67
2022/10/30 09:06:08;;;;;;;;;;;17.80;70.70;;;;;;5093679;28;20003;-67
2022/10/30 09:08:34;;;;;;;;;;;17.80;70.70;;;;;;5092911;28;20050;-67
2022/10/30 09:11:00;;;;;;;;;;;17.80;70.70;;;;;;5075194;28;19927;-67
2022/10/30 09:13:25;;;;;;;;;;;17.80;70.70;;;;;;5093073;28;19924;-67
2022/10/30 09:15:51;;;;;;;;;;;17.80;70.70;;;;;;5074894;28;19920;-67
2022/10/30 09:18:17;;;;;;;;;;;17.80;70.70;;;;;;5092738;28;19973;-67
2022/10/30 09:20:42;;;;;;;;;;;17.80;70.70;;;;;;5074822;28;19949;-67
2022/10/30 09:23:08;;;;;;;;;;;17.80;70.70;;;;;;5074544;28;19920;-67
2022/10/30 09:25:33;;;;;;;;;;;17.80;70.70;;;;;;5074566;28;19926;-67
2022/10/30 09:27:59;;;;;;;;;;;17.80;70.70;;;;;;5074663;28;19978;-67
2022/10/30 09:30:24;;;;;;;;;;;17.80;70.70;;;;;;5074836;28;19971;-67
2022/10/30 09:32:58;;;;;;;;;;;17.80;70.70;;;;;;5074543;28;20372;-67
2022/10/30 09:35:24;;;;;;;;;;;17.80;70.70;;;;;;5074779;28;20015;-67
2022/10/30 09:37:50;;;;;;;;;;;17.80;70.70;;;;;;5074731;28;20027;-68
2022/10/30 09:40:21;;;;;;;;;;;17.80;70.70;;;;;;5092597;28;20291;-67
2022/10/30 09:42:48;;;;;;;;;;;17.80;70.70;;;;;;5092553;28;19920;-67
2022/10/30 09:45:25;;;;;;;;;;;17.80;70.70;;;;;;5074317;28;19947;-68
2022/10/30 09:50:36;;;;;;;;;;;17.80;70.70;;;;;;5110083;27;19912;-66
2022/10/30 09:53:22;;;;;;;;;;;17.70;70.60;;;;;;5110304;28;20307;-66
2022/10/30 10:01:15;;;;;;;;;;;17.80;70.60;;;;;;5089912;28;19912;-66
2022/10/30 10:04:01;;;;;;;;;;;17.80;70.60;;;;;;5088665;28;20371;-67
2022/10/30 10:06:27;;;;;;;;;;;17.80;70.60;;;;;;5088294;28;19921;-66
2022/10/30 10:08:56;;;;;;;;;;;17.90;70.70;;;;;;5105741;28;19994;-66
2022/10/30 10:11:27;;;;;;;;;;;17.80;70.70;;;;;;5088754;28;19927;-66
2022/10/30 10:13:57;;;;;;;;;;;17.90;70.70;;;;;;5089634;28;19920;-67
2022/10/30 10:16:25;;;;;;;;;;;17.80;70.60;;;;;;5088647;28;20321;-67
2022/10/30 10:18:59;;;;;;;;;;;17.80;70.60;;;;;;5088251;28;19920;-66
2022/10/30 10:21:26;;;;;;;;;;;17.80;70.60;;;;;;5088532;28;19920;-66
2022/10/30 10:23:54;;;;;;;;;;;17.80;70.50;;;;;;5088398;28;20190;-67
2022/10/30 10:29:13;;;;;;;;;;;17.90;70.70;;;;;;5128327;27;1848059;-66
2022/10/30 10:31:44;;;;;;;;;;;17.80;70.60;;;;;;5174729;27;19925;-66
2022/10/30 10:45:11;;;;;;;;;;;17.90;70.40;;;;;;5090020;28;19912;-66
2022/10/30 10:47:49;;;;;;;;;;;17.90;70.40;;;;;;5088285;28;20734;-66
2022/10/30 10:50:18;;;;;;;;;;;18.00;70.50;;;;;;5088960;28;20301;-66
2022/10/30 10:52:48;;;;;;;;;;;17.90;70.40;;;;;;5088508;28;19932;-67
2022/10/30 10:55:17;;;;;;;;;;;17.90;70.40;;;;;;5087957;28;19952;-67
2022/10/30 10:57:43;;;;;;;;;;;17.90;71.10;;;;;;5088490;28;19974;-66
2022/10/30 11:00:17;;;;;;;;;;;18.00;70.40;;;;;;5088400;28;19927;-67
2022/10/30 11:02:48;;;;;;;;;;;17.90;70.40;;;;;;5088447;28;19925;-66
2022/10/30 11:05:35;;;;;;;;;;;17.90;70.40;;;;;;5089589;28;20264;-66
2022/10/30 11:08:08;;;;;;;;;;;17.90;70.40;;;;;;5089291;28;19960;-66
2022/10/30 11:10:33;;;;;;;;;;;18.00;70.50;;;;;;5088147;28;19924;-66
2022/10/30 11:12:59;;;;;;;;;;;18.40;70.60;;;;;;5089430;28;19921;-66
2022/10/30 11:15:35;;;;;;;;;;;18.00;70.40;;;;;;5088450;28;19920;-66
2022/10/30 11:18:05;;;;;;;;;;;17.90;70.40;;;;;;5089259;28;20081;-66
2022/10/30 11:20:36;;;;;;;;;;;18.00;70.40;;;;;;5088331;28;19927;-66
2022/10/30 11:23:02;;;;;;;;;;;18.00;70.40;;;;;;5089082;28;19924;-66
2022/10/30 11:25:32;;;;;;;;;;;17.90;70.40;;;;;;5089386;28;19920;-66
2022/10/30 11:27:59;;;;;;;;;;;17.90;70.30;;;;;;5089246;28;19920;-66
2022/10/30 11:30:27;;;;;;;;;;;17.90;70.40;;;;;;5089192;28;20361;-66
2022/10/30 11:32:54;;;;;;;;;;;18.00;70.40;;;;;;5087650;28;20023;-66
2022/10/30 11:35:20;;;;;;;;;;;18.00;70.40;;;;;;5087707;28;19927;-66
2022/10/30 11:37:48;;;;;;;;;;;18.00;70.40;;;;;;5087632;28;19920;-66
2022/10/30 11:42:57;;;;;;;;;;;18.00;70.40;;;;;;5089938;28;19912;-66
2022/10/30 11:45:25;;;;;;;;;;;18.00;70.40;;;;;;5088923;28;20320;-66
2022/10/30 11:47:52;;;;;;;;;;;18.00;70.40;;;;;;5087748;28;20011;-66
2022/10/30 11:50:19;;;;;;;;;;;18.00;70.40;;;;;;5088726;28;19920;-66
2022/10/30 11:52:46;;;;;;;;;;;18.00;70.40;;;;;;5088551;28;20284;-66
2022/10/30 11:55:15;;;;;;;;;;;18.00;70.40;;;;;;5088373;28;19973;-66
2022/10/30 11:57:42;;;;;;;;;;;18.00;70.40;;;;;;5088676;28;19924;-67
2022/10/30 12:00:13;;;;;;;;;;;18.00;70.50;;;;;;5089643;28;19928;-66
2022/10/30 12:02:41;;;;;;;;;;;18.00;70.50;;;;;;5088184;28;19924;-66
2022/10/30 12:05:27;;;;;;;;;;;18.00;70.50;;;;;;5089508;28;20083;-66
2022/10/30 12:07:53;;;;;;;;;;;18.00;70.50;;;;;;5088275;28;20287;-66
2022/10/30 12:10:27;;;;;;;;;;;18.00;70.40;;;;;;5089765;28;20007;-66
2022/10/30 12:12:53;;;;;;;;;;;17.80;70.40;;;;;;5088259;28;19957;-66
2022/10/30 12:15:20;;;;;;;;;;;18.10;70.50;;;;;;5087934;28;19925;-66
2022/10/30 12:17:50;;;;;;;;;;;18.00;70.40;;;;;;5088074;28;19999;-66
2022/10/30 12:20:15;;;;;;;;;;;18.00;70.40;;;;;;5087821;28;19927;-66
2022/10/30 12:22:41;;;;;;;;;;;18.10;70.50;;;;;;5087063;28;19924;-67
2022/10/30 12:25:16;;;;;;;;;;;18.10;70.60;;;;;;5088194;28;19953;-66
2022/10/30 12:27:41;;;;;;;;;;;18.00;70.40;;;;;;5087591;28;20054;-66
2022/10/30 12:30:22;;;;;;;;;;;18.10;70.50;;;;;;5087698;28;20398;-66
2022/10/30 12:32:50;;;;;;;;;;;18.00;70.40;;;;;;5087751;28;20406;-66
2022/10/30 12:35:21;;;;;;;;;;;18.10;70.50;;;;;;5087793;28;19920;-67
2022/10/30 12:37:48;;;;;;;;;;;18.10;70.50;;;;;;5088941;28;19924;-66
2022/10/30 12:45:52;;;;;;;;;;;18.10;70.50;;;;;;5110303;27;19912;-67
2022/10/30 12:48:30;;;;;;;;;;;18.10;70.40;;;;;;5108959;28;20397;-66
2022/10/30 12:51:05;;;;;;;;;;;18.10;70.40;;;;;;5108830;28;19927;-66
2022/10/30 12:56:12;;;;;;;;;;;18.10;70.40;;;;;;5127847;27;1861919;-66
2022/10/30 12:58:45;;;;;;;;;;;18.10;70.40;;;;;;5174752;27;19932;-66
2022/10/30 13:06:48;;;;;;;;;;;18.10;70.30;;;;;;5127898;27;1850966;-66
2022/10/30 13:12:02;;;;;;;;;;;18.10;70.50;;;;;;5110270;27;19912;-66
2022/10/30 13:14:47;;;;;;;;;;;18.10;70.30;;;;;;5110246;28;19920;-66
2022/10/30 13:17:13;;;;;;;;;;;18.10;70.40;;;;;;5108640;28;19920;-66
2022/10/30 13:19:42;;;;;;;;;;;18.10;70.40;;;;;;5109222;28;19924;-66
2022/10/30 13:22:19;;;;;;;;;;;18.10;70.40;;;;;;5109109;28;19924;-66
2022/10/30 13:25:04;;;;;;;;;;;18.10;70.40;;;;;;5108732;28;19927;-66
2022/10/30 13:27:41;;;;;;;;;;;18.20;70.50;;;;;;5109930;28;19934;-66
2022/10/30 13:30:24;;;;;;;;;;;18.10;70.40;;;;;;5108536;28;20375;-66
2022/10/30 13:38:29;;;;;;;;;;;18.10;70.40;;;;;;5089864;28;19912;-66
2022/10/30 13:41:14;;;;;;;;;;;18.10;70.50;;;;;;5088563;28;19971;-66
2022/10/30 13:44:00;;;;;;;;;;;18.10;70.50;;;;;;5089498;28;20399;-66
2022/10/30 13:52:04;;;;;;;;;;;18.20;70.50;;;;;;5123422;27;1980215;-67
2022/10/30 13:54:32;;;;;;;;;;;18.10;70.50;;;;;;5157108;27;19925;-66
2022/10/30 13:57:02;;;;;;;;;;;18.20;70.50;;;;;;5174857;27;20009;-66
2022/10/30 13:59:39;;;;;;;;;;;18.20;70.50;;;;;;5174357;27;20471;-66
2022/10/30 14:02:24;;;;;;;;;;;18.20;70.60;;;;;;5174672;27;20263;-67
2022/10/30 14:04:58;;;;;;;;;;;18.20;70.60;;;;;;5174433;27;19919;-66
2022/10/30 14:07:31;;;;;;;;;;;18.10;70.50;;;;;;5174613;27;20304;-66
2022/10/30 14:10:01;;;;;;;;;;;18.20;70.60;;;;;;5174390;27;19929;-66
2022/10/30 14:12:46;;;;;;;;;;;18.10;70.50;;;;;;5174477;27;19919;-66
2022/10/30 14:15:31;;;;;;;;;;;18.20;70.50;;;;;;5192536;27;19919;-66
2022/10/30 14:20:53;;;;;;;;;;;18.20;70.40;;;;;;5110344;27;19940;-66
2022/10/30 14:28:44;;;;;;;;;;;18.10;70.60;;;;;;5089824;28;20344;-66
2022/10/30 14:31:11;;;;;;;;;;;18.20;70.40;;;;;;5089831;28;20048;-66
2022/10/30 14:33:52;;;;;;;;;;;18.20;70.50;;;;;;5087823;28;20390;-66
2022/10/30 14:36:20;;;;;;;;;;;18.20;70.50;;;;;;5088677;28;19920;-66
2022/10/30 14:39:05;;;;;;;;;;;18.30;70.40;;;;;;5088441;28;19967;-66
2022/10/30 14:47:28;;;;;;;;;;;18.20;70.50;;;;;;5089965;28;20396;-66
2022/10/30 14:49:57;;;;;;;;;;;18.20;70.50;;;;;;5088330;28;19920;-66
2022/10/30 14:52:42;;;;;;;;;;;18.20;70.60;;;;;;5088169;28;19969;-66
2022/10/30 14:55:17;;;;;;;;;;;18.20;70.60;;;;;;5088189;28;19943;-66
2022/10/30 14:57:46;;;;;;;;;;;18.20;70.70;;;;;;5088418;28;20396;-66
2022/10/30 15:00:29;;;;;;;;;;;18.20;70.60;;;;;;5088389;28;19925;-66
2022/10/30 15:11:22;;;;;;;;;;;18.20;70.70;;;;;;5110236;27;19938;-66
2022/10/30 15:13:49;;;;;;;;;;;18.30;70.80;;;;;;5108670;28;19924;-66
2022/10/30 15:16:16;;;;;;;;;;;18.20;70.70;;;;;;5108874;28;20410;-66
2022/10/30 15:18:46;;;;;;;;;;;18.30;70.70;;;;;;5110208;28;20215;-66
2022/10/30 15:21:17;;;;;;;;;;;18.20;70.70;;;;;;5108802;28;19974;-67
2022/10/30 15:23:43;;;;;;;;;;;18.30;70.80;;;;;;5108470;28;20062;-66
2022/10/30 15:26:17;;;;;;;;;;;18.20;70.70;;;;;;5108890;28;20010;-66
2022/10/30 15:28:42;;;;;;;;;;;18.20;70.70;;;;;;5108513;28;19928;-67
2022/10/30 15:31:24;;;;;;;;;;;18.30;70.80;;;;;;5110034;28;19920;-66
2022/10/30 15:33:50;;;;;;;;;;;18.30;70.80;;;;;;5108655;28;20367;-66
2022/10/30 15:36:17;;;;;;;;;;;18.30;70.70;;;;;;5108789;28;19927;-66
2022/10/30 15:38:42;;;;;;;;;;;18.30;70.80;;;;;;5109777;28;20010;-66
2022/10/30 15:41:08;;;;;;;;;;;18.30;70.70;;;;;;5108636;28;20007;-66
2022/10/30 15:43:36;;;;;;;;;;;18.30;70.70;;;;;;5108753;28;20375;-66
2022/10/30 15:46:07;;;;;;;;;;;18.30;70.80;;;;;;5108339;28;19955;-66
2022/10/30 15:48:33;;;;;;;;;;;18.30;70.80;;;;;;5109653;28;19920;-66